createdAt,value
2022-08-03T00:01:41.035Z,99113.00
2022-08-03T00:04:08.449Z,99119.56
2022-08-03T00:06:37.275Z,99122.22
2022-08-03T00:09:08.406Z,99124.84
2022-08-03T00:11:35.705Z,99134.59
2022-08-03T00:14:02.870Z,99129.75
2022-08-03T00:16:29.497Z,99122.25
2022-08-03T00:18:56.081Z,99124.03
2022-08-03T00:21:22.798Z,99121.66
2022-08-03T00:23:51.570Z,99121.59
2022-08-03T00:26:19.483Z,99123.59
2022-08-03T00:28:46.033Z,99125.94
2022-08-03T00:31:13.504Z,99124.25
2022-08-03T00:33:59.174Z,99121.59
2022-08-03T00:36:27.694Z,99124.13
2022-08-03T00:38:54.706Z,99115.16
2022-08-03T00:41:21.350Z,99109.97
2022-08-03T00:43:47.988Z,99109.72
2022-08-03T00:46:19.202Z,99129.69
2022-08-03T00:48:51.483Z,99117.56
2022-08-03T00:51:19.082Z,99121.72
2022-08-03T00:53:46.082Z,99118.25
2022-08-03T00:56:16.877Z,99125.94
2022-08-03T00:58:46.854Z,99123.16
2022-08-03T01:01:14.389Z,99127.34
2022-08-03T01:03:41.475Z,99127.50
2022-08-03T01:06:20.791Z,99122.72
2022-08-03T01:08:53.606Z,99125.38
2022-08-03T01:11:29.101Z,99123.28
2022-08-03T01:14:19.345Z,99125.13
2022-08-03T01:16:52.828Z,99124.69
2022-08-03T01:19:32.747Z,99131.44
2022-08-03T01:22:10.671Z,99128.91
2022-08-03T01:24:55.599Z,99120.38
2022-08-03T01:27:26.598Z,99130.28
2022-08-03T01:30:00.487Z,99128.97
2022-08-03T01:33:05.276Z,99130.38
2022-08-03T01:35:52.587Z,99141.09
2022-08-03T01:38:24.863Z,99136.69
2022-08-03T01:40:54.837Z,99137.63
2022-08-03T01:44:26.406Z,99118.06
2022-08-03T01:46:11.810Z,99121.28
2022-08-03T01:48:40.084Z,99119.75
2022-08-03T01:51:09.276Z,99122.25
2022-08-03T01:53:37.422Z,99125.69
2022-08-03T01:56:05.974Z,99117.50
2022-08-03T01:58:34.415Z,99115.81
2022-08-03T02:01:03.051Z,99106.28
2022-08-03T02:03:30.058Z,99114.38
2022-08-03T02:06:58.956Z,99106.09
2022-08-03T02:08:45.303Z,99104.69
2022-08-03T02:11:12.775Z,99102.88
2022-08-03T02:13:39.795Z,99110.81
2022-08-03T02:16:07.324Z,99097.94
2022-08-03T02:18:34.147Z,99111.06
2022-08-03T02:21:11.114Z,99103.25
2022-08-03T02:23:38.441Z,99122.19
2022-08-03T02:26:06.489Z,99116.75
2022-08-03T02:28:36.234Z,99123.25
2022-08-03T02:31:17.207Z,99134.09
2022-08-03T02:33:49.525Z,99128.09
2022-08-03T02:36:20.438Z,99129.50
2022-08-03T02:38:49.991Z,99125.28
2022-08-03T02:41:18.545Z,99135.63
2022-08-03T02:44:06.600Z,99130.88
2022-08-03T02:46:38.488Z,99140.47
2022-08-03T02:49:40.815Z,99142.31
2022-08-03T02:51:53.605Z,99143.25
2022-08-03T02:54:22.453Z,99137.13
2022-08-03T02:56:49.117Z,99130.56
2022-08-03T02:59:18.308Z,99155.88
2022-08-03T03:01:45.395Z,99151.09
2022-08-03T03:04:12.193Z,99152.53
2022-08-03T03:06:40.502Z,99147.94
2022-08-03T03:09:07.944Z,99149.09
2022-08-03T03:11:36.574Z,99138.41
2022-08-03T03:14:03.558Z,99139.84
2022-08-03T03:16:31.233Z,99108.22
2022-08-03T03:18:58.619Z,99135.69
2022-08-03T03:21:25.256Z,99118.50
2022-08-03T03:23:52.668Z,99136.03
2022-08-03T03:26:19.546Z,99124.44
2022-08-03T03:28:46.245Z,99123.38
2022-08-03T03:31:12.894Z,99114.78
2022-08-03T03:33:39.559Z,99113.59
2022-08-03T03:36:07.276Z,99119.34
2022-08-03T03:38:34.315Z,99126.09
2022-08-03T03:41:01.517Z,99117.16
2022-08-03T03:43:31.513Z,99123.94
2022-08-03T03:45:58.850Z,99121.84
2022-08-03T03:48:26.362Z,99137.81
2022-08-03T03:50:53.294Z,99132.84
2022-08-03T03:53:20.409Z,99146.19
2022-08-03T03:55:58.953Z,99127.41
2022-08-03T03:58:29.014Z,99141.59
2022-08-03T04:00:55.704Z,99146.06
2022-08-03T04:03:22.670Z,99135.53
2022-08-03T04:06:08.448Z,99129.03
2022-08-03T04:09:01.145Z,99131.56
2022-08-03T04:11:31.791Z,99136.03
2022-08-03T04:14:24.799Z,99133.75
2022-08-03T04:17:02.922Z,99117.56
2022-08-03T04:19:36.198Z,99123.13
2022-08-03T04:22:05.429Z,99125.97
2022-08-03T04:24:35.691Z,99120.78
2022-08-03T04:27:05.700Z,99125.91
2022-08-03T04:29:35.505Z,99094.97
2022-08-03T04:32:06.494Z,99113.09
2022-08-03T04:34:33.109Z,99112.00
2022-08-03T04:37:01.043Z,99105.91
2022-08-03T04:39:30.318Z,99078.94
2022-08-03T04:42:04.750Z,99108.03
2022-08-03T04:44:42.144Z,99106.63
2022-08-03T04:47:08.927Z,99109.47
2022-08-03T04:49:38.078Z,99107.09
2022-08-03T04:52:06.096Z,99107.78
2022-08-03T04:54:39.846Z,99084.84
2022-08-03T04:57:06.413Z,99084.97
2022-08-03T04:59:33.062Z,99074.94
2022-08-03T05:02:00.346Z,99071.00
2022-08-03T05:04:27.001Z,99054.94
2022-08-03T05:06:55.141Z,99024.94
2022-08-03T05:09:49.661Z,99025.41
2022-08-03T05:12:09.965Z,99019.69
2022-08-03T05:14:38.810Z,99025.22
2022-08-03T05:17:06.306Z,99022.88
2022-08-03T05:19:33.115Z,99022.59
2022-08-03T05:22:00.072Z,99047.69
2022-08-03T05:24:27.281Z,99058.50
2022-08-03T05:26:53.860Z,99052.06
2022-08-03T05:29:20.450Z,99063.78
2022-08-03T05:31:47.075Z,99058.13
2022-08-03T05:34:13.691Z,99075.69
2022-08-03T05:36:40.284Z,99060.84
2022-08-03T05:39:06.959Z,99068.28
2022-08-03T05:41:37.131Z,99078.28
2022-08-03T05:44:04.473Z,99103.41
2022-08-03T05:46:31.156Z,99119.13
2022-08-03T05:48:57.809Z,99104.28
2022-08-03T05:51:24.397Z,99091.06
2022-08-03T05:53:50.979Z,99095.91
2022-08-03T05:56:17.577Z,99110.59
2022-08-03T05:58:46.010Z,99124.47
2022-08-03T06:01:12.728Z,99094.22
2022-08-03T06:03:39.809Z,99108.72
2022-08-03T06:06:06.501Z,99097.34
2022-08-03T06:08:33.084Z,99112.00
2022-08-03T06:10:59.866Z,99095.28
2022-08-03T06:13:26.436Z,99102.78
2022-08-03T06:15:53.042Z,99092.13
2022-08-03T06:18:20.056Z,99090.66
2022-08-03T06:20:47.162Z,99100.84
2022-08-03T06:23:18.082Z,99096.69
2022-08-03T06:25:45.670Z,99100.72
2022-08-03T06:28:35.220Z,99104.13
2022-08-03T06:31:01.030Z,99117.59
2022-08-03T06:34:30.213Z,99130.56
2022-08-03T06:36:14.448Z,99124.72
2022-08-03T06:38:41.031Z,99141.06
2022-08-03T06:41:07.662Z,99128.63
2022-08-03T06:43:37.649Z,99110.34
2022-08-03T06:46:08.150Z,99108.28
2022-08-03T06:48:34.836Z,99113.13
2022-08-03T06:51:01.406Z,99110.97
2022-08-03T06:53:28.010Z,99117.66
2022-08-03T06:55:55.314Z,99109.97
2022-08-03T06:58:22.625Z,99110.09
2022-08-03T07:00:49.521Z,99117.16
2022-08-03T07:03:16.583Z,99122.25
2022-08-03T07:05:43.863Z,99116.72
2022-08-03T07:08:10.579Z,99122.22
2022-08-03T07:10:37.332Z,99117.00
2022-08-03T07:13:04.977Z,99113.78
2022-08-03T07:15:54.516Z,99136.56
2022-08-03T07:18:29.167Z,99128.28
2022-08-03T07:20:56.883Z,99129.31
2022-08-03T07:23:23.489Z,99142.53
2022-08-03T07:25:50.940Z,99145.56
2022-08-03T07:28:17.724Z,99126.69
2022-08-03T07:30:44.385Z,99137.63
2022-08-03T07:33:11.190Z,99146.06
2022-08-03T07:35:37.860Z,99149.53
2022-08-03T07:38:05.128Z,99153.25
2022-08-03T07:40:32.199Z,99125.97
2022-08-03T07:42:59.795Z,99151.91
2022-08-03T07:45:26.829Z,99135.28
2022-08-03T07:47:54.200Z,99157.28
2022-08-03T07:50:22.049Z,99168.84
2022-08-03T07:52:49.946Z,99171.81
2022-08-03T07:55:18.393Z,99149.94
2022-08-03T07:57:45.067Z,99156.69
2022-08-03T08:00:19.139Z,99152.00
2022-08-03T08:02:45.858Z,99163.16
2022-08-03T08:05:12.688Z,99159.91
2022-08-03T08:07:39.776Z,99171.59
2022-08-03T08:10:07.975Z,99159.84
2022-08-03T08:12:34.661Z,99170.50
2022-08-03T08:15:01.531Z,99177.50
2022-08-03T08:17:28.088Z,99179.38
2022-08-03T08:19:54.749Z,99173.16
2022-08-03T08:22:23.495Z,99186.25
2022-08-03T08:24:56.986Z,99166.31
2022-08-03T08:27:23.678Z,99171.50
2022-08-03T08:29:54.609Z,99173.72
2022-08-03T08:32:23.223Z,99157.19
2022-08-03T08:34:49.841Z,99161.78
2022-08-03T08:37:16.570Z,99158.72
2022-08-03T08:39:43.211Z,99146.50
2022-08-03T08:42:10.404Z,99157.19
2022-08-03T08:44:37.050Z,99168.47
2022-08-03T08:47:04.625Z,99167.53
2022-08-03T08:49:33.041Z,99164.34
2022-08-03T08:52:01.021Z,99158.31
2022-08-03T08:54:29.354Z,99178.78
2022-08-03T08:56:56.359Z,99167.31
2022-08-03T08:59:23.182Z,99183.59
2022-08-03T09:01:49.752Z,99177.03
2022-08-03T09:04:16.378Z,99178.78
2022-08-03T09:06:58.611Z,99181.78
2022-08-03T09:10:10.427Z,99193.03
2022-08-03T09:12:39.074Z,99192.69
2022-08-03T09:15:28.658Z,99190.41
2022-08-03T09:17:58.290Z,99177.94
2022-08-03T09:20:26.545Z,99170.91
2022-08-03T09:23:01.636Z,99172.34
2022-08-03T09:25:39.386Z,99166.00
2022-08-03T09:28:09.124Z,99167.75
2022-08-03T09:30:37.081Z,99160.22
2022-08-03T09:33:06.580Z,99169.38
2022-08-03T09:35:57.803Z,99181.94
2022-08-03T09:38:28.671Z,99184.78
2022-08-03T09:41:00.290Z,99200.91
2022-08-03T09:43:28.016Z,99197.53
2022-08-03T09:46:07.642Z,99195.53
2022-08-03T09:48:37.386Z,99190.50
2022-08-03T09:51:13.694Z,99202.91
2022-08-03T09:53:59.772Z,99210.25
2022-08-03T09:56:47.354Z,99238.09
2022-08-03T09:59:23.576Z,99272.16
2022-08-03T10:01:50.206Z,99320.63
2022-08-03T10:04:19.654Z,99330.84
2022-08-03T10:07:02.248Z,99335.19
2022-08-03T10:09:28.955Z,99339.84
2022-08-03T10:11:55.836Z,99341.50
2022-08-03T10:14:23.478Z,99349.47
2022-08-03T10:16:50.563Z,99337.25
2022-08-03T10:19:17.528Z,99335.69
2022-08-03T10:21:51.437Z,99324.88
2022-08-03T10:24:24.325Z,99322.94
2022-08-03T10:26:51.474Z,99316.03
2022-08-03T10:29:25.377Z,99291.91
2022-08-03T10:31:58.135Z,99270.13
2022-08-03T10:34:27.733Z,99262.94
2022-08-03T10:36:57.375Z,99221.22
2022-08-03T10:39:28.803Z,99206.50
2022-08-03T10:41:57.658Z,99226.50
2022-08-03T10:44:26.409Z,99194.06
2022-08-03T10:46:53.330Z,99190.88
2022-08-03T10:49:34.410Z,99185.84
2022-08-03T10:52:10.382Z,99180.16
2022-08-03T10:55:01.035Z,99182.66
2022-08-03T10:57:50.119Z,99191.31
2022-08-03T11:00:24.023Z,99195.38
2022-08-03T11:03:10.634Z,99209.00
2022-08-03T11:05:46.189Z,99190.13
2022-08-03T11:08:30.205Z,99191.44
2022-08-03T11:11:16.994Z,99187.84
2022-08-03T11:14:04.818Z,99180.34
2022-08-03T11:16:35.600Z,99185.50
2022-08-03T11:19:05.118Z,99169.09
2022-08-03T11:21:53.211Z,99158.06
2022-08-03T11:24:40.649Z,99157.75
2022-08-03T11:27:24.922Z,99140.88
2022-08-03T11:30:01.587Z,99142.53
2022-08-03T11:32:40.513Z,99147.31
2022-08-03T11:35:33.647Z,99140.31
2022-08-03T11:38:04.483Z,99142.97
2022-08-03T11:40:42.034Z,99148.50
2022-08-03T11:43:22.243Z,99128.47
2022-08-03T11:46:01.072Z,99138.09
2022-08-03T11:48:34.202Z,99131.25
2022-08-03T11:51:02.020Z,99151.41
2022-08-03T11:53:28.749Z,99141.63
2022-08-03T11:55:59.753Z,99134.03
2022-08-03T11:59:01.644Z,99141.03
2022-08-03T12:01:13.582Z,99139.00
2022-08-03T12:03:40.326Z,99129.88
2022-08-03T12:06:10.574Z,99150.72
2022-08-03T12:08:37.421Z,99132.28
2022-08-03T12:11:06.777Z,99126.78
2022-08-03T12:14:45.435Z,99144.09
2022-08-03T12:16:37.862Z,99128.94
2022-08-03T12:19:06.762Z,99150.38
2022-08-03T12:21:33.715Z,99126.56
2022-08-03T12:24:02.955Z,99138.06
2022-08-03T12:26:30.596Z,99200.84
2022-08-03T12:28:58.347Z,99213.09
2022-08-03T12:31:25.287Z,99206.69
2022-08-03T12:34:03.040Z,99219.88
2022-08-03T12:36:34.952Z,99238.22
2022-08-03T12:39:04.944Z,99230.47
2022-08-03T12:41:34.206Z,99235.81
2022-08-03T12:44:03.482Z,99223.97
2022-08-03T12:46:32.766Z,99213.91
2022-08-03T12:49:15.491Z,99210.69
2022-08-03T12:51:42.182Z,99211.03
2022-08-03T12:54:10.093Z,99190.19
2022-08-03T12:57:03.840Z,99183.59
2022-08-03T12:59:35.311Z,99182.44
2022-08-03T13:02:21.024Z,99167.56
2022-08-03T13:04:51.959Z,99148.09
2022-08-03T13:07:19.683Z,99129.56
2022-08-03T13:09:48.814Z,99131.56
2022-08-03T13:12:20.898Z,99119.84
2022-08-03T13:14:50.926Z,99109.13
2022-08-03T13:17:17.946Z,99127.69
2022-08-03T13:19:46.000Z,99084.72
2022-08-03T13:22:14.157Z,99121.81
2022-08-03T13:24:41.327Z,99115.88
2022-08-03T13:28:02.598Z,99119.91
2022-08-03T13:29:55.709Z,99123.00
2022-08-03T13:32:22.758Z,99116.56
2022-08-03T13:34:49.467Z,99137.06
2022-08-03T13:37:16.273Z,99160.13
2022-08-03T13:39:57.795Z,99152.38
2022-08-03T13:42:27.783Z,99205.91
2022-08-03T13:44:54.366Z,99275.75
2022-08-03T13:47:21.363Z,99341.19
2022-08-03T13:49:59.436Z,99373.50
2022-08-03T13:52:27.624Z,99382.41
2022-08-03T13:54:54.231Z,99407.41
2022-08-03T13:58:02.918Z,99381.97
2022-08-03T14:00:08.278Z,99384.88
2022-08-03T14:02:34.884Z,99400.19
2022-08-03T14:05:01.502Z,99400.88
2022-08-03T14:07:28.187Z,99407.31
2022-08-03T14:09:54.781Z,99414.16
2022-08-03T14:12:21.331Z,99415.38
2022-08-03T14:14:47.981Z,99415.50
2022-08-03T14:17:16.460Z,99418.03
2022-08-03T14:19:53.446Z,99408.66
2022-08-03T14:22:21.484Z,99413.78
2022-08-03T14:24:49.159Z,99419.31
2022-08-03T14:27:16.860Z,99430.25
2022-08-03T14:29:43.624Z,99431.78
2022-08-03T14:32:13.230Z,99431.94
2022-08-03T14:34:39.985Z,99433.22
2022-08-03T14:37:07.678Z,99406.59
2022-08-03T14:42:21.481Z,99408.63
2022-08-03T14:44:48.067Z,99409.31
2022-08-03T14:47:14.974Z,99395.47
2022-08-03T14:50:36.456Z,99400.94
2022-08-03T14:52:28.791Z,99385.25
2022-08-03T14:54:55.426Z,99396.34
2022-08-03T14:57:22.307Z,99387.81
2022-08-03T14:59:55.976Z,99387.53
2022-08-03T15:02:25.035Z,99378.72
2022-08-03T15:04:52.374Z,99356.00
2022-08-03T15:07:20.408Z,99352.78
2022-08-03T15:09:47.352Z,99321.41
2022-08-03T15:12:13.946Z,99308.78
2022-08-03T15:14:40.671Z,99323.16
2022-08-03T15:17:07.692Z,99298.06
2022-08-03T15:20:00.262Z,99293.69
2022-08-03T15:22:25.345Z,99271.59
2022-08-03T15:26:03.139Z,99240.75
2022-08-03T15:28:03.606Z,99251.44
2022-08-03T15:30:33.845Z,99237.28
2022-08-03T15:33:00.437Z,99234.63
2022-08-03T15:35:28.870Z,99242.56
2022-08-03T15:37:55.518Z,99251.38
2022-08-03T15:40:22.221Z,99257.97
2022-08-03T15:42:48.828Z,99268.53
2022-08-03T15:45:17.841Z,99269.59
2022-08-03T15:47:47.156Z,99261.13
2022-08-03T15:50:14.179Z,99273.38
2022-08-03T15:52:40.801Z,99270.16
2022-08-03T15:55:08.072Z,99278.22
2022-08-03T15:57:34.719Z,99291.94
2022-08-03T16:00:21.354Z,99286.22
2022-08-03T16:03:01.136Z,99291.56
2022-08-03T16:05:28.054Z,99291.53
2022-08-03T16:08:02.944Z,99281.47
2022-08-03T16:10:32.212Z,99289.19
2022-08-03T16:13:00.146Z,99278.91
2022-08-03T16:15:27.386Z,99279.25
2022-08-03T16:17:54.093Z,99288.34
2022-08-03T16:20:30.764Z,99294.28
2022-08-03T16:23:07.752Z,99307.91
2022-08-03T16:25:39.596Z,99294.72
2022-08-03T16:28:13.114Z,99300.75
2022-08-03T16:30:42.142Z,99305.38
2022-08-03T16:33:08.895Z,99306.19
2022-08-03T16:35:35.734Z,99295.97
2022-08-03T16:38:06.517Z,99296.41
2022-08-03T16:40:36.335Z,99290.25
2022-08-03T16:43:18.302Z,99298.53
2022-08-03T16:45:46.722Z,99304.41
2022-08-03T16:48:14.116Z,99311.41
2022-08-03T16:50:40.783Z,99315.75
2022-08-03T16:53:09.009Z,99324.34
2022-08-03T16:55:51.597Z,99339.91
2022-08-03T16:58:41.540Z,99356.00
2022-08-03T17:01:24.076Z,99367.25
2022-08-03T17:04:01.595Z,99375.22
2022-08-03T17:06:34.456Z,99387.53
2022-08-03T17:09:01.915Z,99393.41
2022-08-03T17:11:33.072Z,99403.66
2022-08-03T17:14:00.659Z,99403.38
2022-08-03T17:16:27.485Z,99395.06
2022-08-03T17:19:02.103Z,99407.41
2022-08-03T17:21:32.461Z,99412.28
2022-08-03T17:24:26.292Z,99407.41
2022-08-03T17:26:54.547Z,99409.34
2022-08-03T17:29:25.029Z,99415.94
2022-08-03T17:31:52.868Z,99417.59
2022-08-03T17:34:20.136Z,99424.06
2022-08-03T17:37:03.855Z,99418.31
2022-08-03T17:39:55.722Z,99420.97
2022-08-03T17:42:30.113Z,99423.19
2022-08-03T17:45:02.119Z,99421.66
2022-08-03T17:47:41.178Z,99425.56
2022-08-03T17:50:24.649Z,99432.44
2022-08-03T17:52:58.197Z,99439.59
2022-08-03T17:55:55.894Z,99426.84
2022-08-03T17:58:18.186Z,99425.97
2022-08-03T18:01:58.184Z,99429.75
2022-08-03T18:03:58.428Z,99449.66
2022-08-03T18:06:30.878Z,99433.53
2022-08-03T18:11:46.219Z,99436.22
2022-08-03T18:14:57.719Z,99432.97
2022-08-03T18:17:55.965Z,99431.41
2022-08-03T18:20:32.774Z,99433.13
2022-08-03T18:23:04.926Z,99424.72
2022-08-03T18:25:45.181Z,99422.22
2022-08-03T18:28:16.230Z,99418.00
2022-08-03T18:30:53.134Z,99411.72
2022-08-03T18:34:18.213Z,99405.69
2022-08-03T18:36:17.509Z,99399.38
2022-08-03T18:38:46.982Z,99391.25
2022-08-03T18:41:22.150Z,99391.41
2022-08-03T18:44:09.526Z,99377.25
2022-08-03T18:47:05.534Z,99378.81
2022-08-03T18:49:48.081Z,99372.50
2022-08-03T18:52:22.993Z,99371.09
2022-08-03T18:55:20.683Z,99376.81
2022-08-03T18:57:51.730Z,99384.25
2022-08-03T19:00:24.443Z,99378.41
2022-08-03T19:03:12.514Z,99376.28
2022-08-03T19:06:02.672Z,99376.44
2022-08-03T19:09:04.787Z,99379.09
2022-08-03T19:12:14.151Z,99369.00
2022-08-03T19:14:28.651Z,99372.88
2022-08-03T19:17:05.617Z,99392.78
2022-08-03T19:19:43.573Z,99387.75
2022-08-03T19:22:12.558Z,99390.28
2022-08-03T19:24:43.399Z,99392.78
2022-08-03T19:27:10.877Z,99401.31
2022-08-03T19:29:59.409Z,99401.16
2022-08-03T19:32:28.717Z,99413.50
2022-08-03T19:34:56.913Z,99406.47
2022-08-03T19:37:27.558Z,99411.53
2022-08-03T19:40:10.455Z,99411.22
2022-08-03T19:42:41.122Z,99400.00
2022-08-03T19:45:11.466Z,99411.06
2022-08-03T19:47:46.032Z,99402.34
2022-08-03T19:50:14.379Z,99424.75
2022-08-03T19:52:43.816Z,99415.34
2022-08-03T19:55:12.496Z,99424.31
2022-08-03T19:57:41.207Z,99434.50
2022-08-03T20:00:12.606Z,99448.91
2022-08-03T20:02:41.299Z,99448.81
2022-08-03T20:05:14.931Z,99430.47
2022-08-03T20:07:47.478Z,99439.31
2022-08-03T20:10:16.111Z,99437.06
2022-08-03T20:12:54.848Z,99428.22
2022-08-03T20:15:31.748Z,99433.28
2022-08-03T20:17:59.172Z,99438.50
2022-08-03T20:20:35.215Z,99432.88
2022-08-03T20:23:06.945Z,99427.94
2022-08-03T20:25:48.515Z,99431.44
2022-08-03T20:28:23.102Z,99407.09
2022-08-03T20:30:53.906Z,99415.16
2022-08-03T20:33:20.594Z,99415.53
2022-08-03T20:35:54.602Z,99433.50
2022-08-03T20:38:27.346Z,99426.78
2022-08-03T20:40:54.508Z,99413.63
2022-08-03T20:43:21.418Z,99418.38
2022-08-03T20:45:58.355Z,99419.22
2022-08-03T20:48:35.953Z,99415.06
2022-08-03T20:51:05.466Z,99411.84
2022-08-03T20:54:00.134Z,99411.84
2022-08-03T20:56:33.744Z,99414.66
2022-08-03T20:59:07.170Z,99403.16
2022-08-03T21:01:41.675Z,99384.78
2022-08-03T21:04:11.291Z,99408.44
2022-08-03T21:06:53.209Z,99408.31
2022-08-03T21:09:33.627Z,99408.72
2022-08-03T21:12:07.892Z,99410.56
2022-08-03T21:12:56.883Z,99438.03
2022-08-03T21:14:39.661Z,99410.97
2022-08-03T21:17:25.045Z,99412.94
2022-08-03T21:19:54.883Z,99423.97
2022-08-03T21:22:23.081Z,99424.41
2022-08-03T21:24:54.268Z,99435.28
2022-08-03T21:27:23.911Z,99439.59
2022-08-03T21:29:53.455Z,99439.13
2022-08-03T21:32:32.462Z,99436.94
2022-08-03T21:35:00.463Z,99441.91
2022-08-03T21:37:28.218Z,99447.22
2022-08-03T21:39:55.656Z,99432.38
2022-08-03T21:42:25.853Z,99430.50
2022-08-03T21:44:53.183Z,99453.16
2022-08-03T21:47:22.641Z,99442.16
2022-08-03T21:50:07.503Z,99445.88
2022-08-03T21:52:45.602Z,99447.88
2022-08-03T21:55:18.395Z,99446.25
2022-08-03T21:57:52.047Z,99457.94
2022-08-03T22:00:21.896Z,99442.38
2022-08-03T22:02:55.488Z,99452.19
2022-08-03T22:05:28.146Z,99456.63
2022-08-03T22:08:00.606Z,99461.56
2022-08-03T22:10:28.775Z,99460.59
2022-08-03T22:12:55.824Z,99456.69
2022-08-03T22:15:22.618Z,99450.47
2022-08-03T22:17:54.730Z,99464.59
2022-08-03T22:20:23.950Z,99457.88
2022-08-03T22:22:56.045Z,99460.84
2022-08-03T22:25:34.446Z,99475.66
2022-08-03T22:28:03.745Z,99471.09
2022-08-03T22:30:33.076Z,99463.13
2022-08-03T22:33:01.794Z,99466.03
2022-08-03T22:35:28.615Z,99476.78
2022-08-03T22:37:57.996Z,99473.13
2022-08-03T22:40:24.615Z,99472.19
2022-08-03T22:42:52.566Z,99476.91
2022-08-03T22:46:08.930Z,99478.69
2022-08-03T22:48:07.978Z,99466.78
2022-08-03T22:50:35.027Z,99477.28
2022-08-03T22:53:01.936Z,99475.09
2022-08-03T22:55:28.831Z,99462.50
2022-08-03T22:57:56.080Z,99464.72
2022-08-03T23:00:23.635Z,99463.31
2022-08-03T23:02:51.390Z,99465.59
2022-08-03T23:06:00.476Z,99470.66
2022-08-03T23:08:14.702Z,99464.19
2022-08-03T23:10:46.781Z,99457.31
2022-08-03T23:13:15.973Z,99452.88
2022-08-03T23:15:43.729Z,99448.19
2022-08-03T23:18:10.655Z,99465.34
2022-08-03T23:20:37.846Z,99465.88
2022-08-03T23:23:05.137Z,99470.47
2022-08-03T23:25:31.876Z,99470.91
2022-08-03T23:28:05.867Z,99466.03
2022-08-03T23:30:34.665Z,99474.22
2022-08-03T23:33:02.670Z,99474.94
2022-08-03T23:36:22.620Z,99471.09
2022-08-03T23:38:36.237Z,99473.50
2022-08-03T23:41:04.784Z,99471.44
2022-08-03T23:43:45.249Z,99478.06
2022-08-03T23:46:19.881Z,99467.44
2022-08-03T23:48:46.558Z,99456.84
2022-08-03T23:51:42.330Z,99474.81
2022-08-03T23:54:08.846Z,99479.28
2022-08-03T23:56:48.920Z,99475.78
2022-08-03T23:59:34.730Z,99472.41
